TimeCST,TemperatureF,Dew PointF,Humidity,Sea Level PressureIn,VisibilityMPH,Wind Direction,Wind SpeedMPH,Gust SpeedMPH,PrecipitationIn,Events,Conditions,WindDirDegrees,DateUTC
12:53 AM,42.1,35.1,76,30.20,10.0,Calm,Calm,-,N/A,,Clear,0,2013-12-19 06:53:00
1:53 AM,39.9,37.0,89,30.19,7.0,Calm,Calm,-,N/A,,Clear,0,2013-12-19 07:53:00
2:53 AM,42.1,37.0,82,30.19,8.0,Calm,Calm,-,N/A,,Mostly Cloudy,0,2013-12-19 08:53:00
3:24 AM,44.6,41.0,87,30.19,9.0,Calm,Calm,-,N/A,,Mostly Cloudy,0,2013-12-19 09:24:00
3:53 AM,46.0,41.0,83,30.18,9.0,Calm,Calm,-,N/A,,Mostly Cloudy,0,2013-12-19 09:53:00
4:53 AM,46.9,42.1,83,30.17,10.0,Calm,Calm,-,N/A,,Mostly Cloudy,0,2013-12-19 10:53:00
5:53 AM,48.0,44.1,86,30.18,10.0,Calm,Calm,-,N/A,,Overcast,0,2013-12-19 11:53:00
6:53 AM,48.0,45.0,89,30.19,10.0,Calm,Calm,-,N/A,,Overcast,0,2013-12-19 12:53:00
7:53 AM,51.1,46.9,86,30.19,7.0,Calm,Calm,-,N/A,,Overcast,0,2013-12-19 13:53:00
8:53 AM,55.0,50.0,83,30.19,10.0,SSE,3.5,-,N/A,,Overcast,160,2013-12-19 14:53:00
9:53 AM,63.0,53.1,70,30.19,10.0,SSE,10.4,-,N/A,,Mostly Cloudy,160,2013-12-19 15:53:00
10:53 AM,68.0,54.0,61,30.17,10.0,SSE,13.8,-,N/A,,Partly Cloudy,150,2013-12-19 16:53:00
11:53 AM,70.0,55.0,59,30.13,10.0,SSE,13.8,24.2,N/A,,Partly Cloudy,160,2013-12-19 17:53:00
12:53 PM,69.1,54.0,58,30.10,10.0,South,18.4,26.5,N/A,,Mostly Cloudy,180,2013-12-19 18:53:00
1:53 PM,70.0,54.0,57,30.08,10.0,South,15.0,-,N/A,,Overcast,170,2013-12-19 19:53:00
2:53 PM,70.0,55.0,59,30.07,10.0,SSE,12.7,-,N/A,,Overcast,160,2013-12-19 20:53:00
3:53 PM,69.1,55.0,61,30.07,10.0,South,9.2,-,N/A,,Overcast,170,2013-12-19 21:53:00
4:53 PM,66.9,55.0,66,30.06,8.0,SSE,9.2,-,N/A,,Overcast,160,2013-12-19 22:53:00
5:53 PM,64.9,55.0,70,30.05,10.0,SSE,6.9,-,N/A,,Mostly Cloudy,150,2013-12-19 23:53:00
6:53 PM,64.0,55.9,75,30.06,10.0,SSE,10.4,-,N/A,,Overcast,150,2013-12-20 00:53:00
7:53 PM,64.0,55.9,75,30.06,10.0,SSE,10.4,-,N/A,,Overcast,160,2013-12-20 01:53:00
8:53 PM,62.1,55.9,80,30.06,10.0,SSE,8.1,-,N/A,,Mostly Cloudy,150,2013-12-20 02:53:00
9:53 PM,61.0,55.9,83,30.05,10.0,SSE,8.1,-,N/A,,Mostly Cloudy,150,2013-12-20 03:53:00
10:53 PM,60.1,55.0,83,30.04,10.0,SSE,6.9,-,N/A,,Mostly Cloudy,150,2013-12-20 04:53:00
11:53 PM,60.1,55.9,86,30.03,10.0,SE,4.6,-,N/A,,Overcast,140,2013-12-20 05:53:00